createdAt,value
2023-01-22T00:02:59.019Z,95756.72
2023-01-22T00:06:02.238Z,95755.06
2023-01-22T00:09:04.259Z,95766.94
2023-01-22T00:12:06.353Z,95768.00
2023-01-22T00:15:08.977Z,95769.78
2023-01-22T00:18:10.737Z,95770.16
2023-01-22T00:21:14.005Z,95756.63
2023-01-22T00:24:15.763Z,95763.22
2023-01-22T00:27:17.499Z,95763.78
2023-01-22T00:30:19.970Z,95762.03
2023-01-22T00:33:21.873Z,95766.94
2023-01-22T00:36:25.157Z,95776.47
2023-01-22T00:39:26.943Z,95761.81
2023-01-22T00:42:28.681Z,95762.91
2023-01-22T00:45:30.473Z,95766.75
2023-01-22T00:48:32.281Z,95766.44
2023-01-22T00:51:35.579Z,95770.97
2023-01-22T00:54:37.336Z,95772.63
2023-01-22T00:57:39.112Z,95769.97
2023-01-22T01:00:40.895Z,95769.47
2023-01-22T01:03:43.135Z,95773.22
2023-01-22T01:06:46.371Z,95770.09
2023-01-22T01:09:48.144Z,95777.25
2023-01-22T01:12:49.874Z,95772.75
2023-01-22T01:15:58.964Z,95779.41
2023-01-22T01:19:02.100Z,95774.22
2023-01-22T01:22:05.235Z,95785.56
2023-01-22T01:25:07.377Z,95777.75
2023-01-22T01:28:09.152Z,95783.63
2023-01-22T01:31:12.851Z,95786.06
2023-01-22T01:34:14.686Z,95785.31
2023-01-22T01:37:17.858Z,95782.47
2023-01-22T01:40:20.008Z,95784.50
2023-01-22T01:43:21.938Z,95789.22
2023-01-22T01:46:25.219Z,95788.72
2023-01-22T01:49:31.273Z,95793.81
2023-01-22T01:52:34.515Z,95793.63
2023-01-22T01:55:39.491Z,95792.81
2023-01-22T01:58:43.324Z,95798.13
2023-01-22T02:01:47.763Z,95800.56
2023-01-22T02:04:50.818Z,95795.09
2023-01-22T02:07:54.168Z,95800.88
2023-01-22T02:10:59.167Z,95802.16
2023-01-22T02:14:04.550Z,95800.38
2023-01-22T02:17:07.926Z,95806.16
2023-01-22T02:20:11.053Z,95812.53
2023-01-22T02:23:14.209Z,95825.78
2023-01-22T02:26:15.989Z,95827.66
2023-01-22T02:29:17.763Z,95826.84
2023-01-22T02:32:19.598Z,95832.25
2023-01-22T02:35:21.427Z,95835.88
2023-01-22T02:38:24.627Z,95840.41
2023-01-22T02:41:27.475Z,95837.34
2023-01-22T02:44:29.330Z,95830.19
2023-01-22T02:47:31.044Z,95828.81
2023-01-22T02:50:32.881Z,95825.88
2023-01-22T02:53:36.018Z,95825.56
2023-01-22T02:56:37.851Z,95819.97
2023-01-22T02:59:39.609Z,95814.00
2023-01-22T03:02:41.374Z,95822.44
2023-01-22T03:05:49.691Z,95819.72
2023-01-22T03:08:55.535Z,95819.00
2023-01-22T03:11:57.945Z,95818.13
2023-01-22T03:14:59.774Z,95819.72
2023-01-22T03:18:01.585Z,95823.44
2023-01-22T03:21:06.021Z,95821.28
2023-01-22T03:24:09.743Z,95825.78
2023-01-22T03:27:11.528Z,95825.06
2023-01-22T03:30:13.460Z,95830.06
2023-01-22T03:33:15.245Z,95825.56
2023-01-22T03:36:16.981Z,95829.59
2023-01-22T03:39:20.210Z,95827.53
2023-01-22T03:42:24.834Z,95835.28
2023-01-22T03:45:26.597Z,95836.03
2023-01-22T03:48:28.976Z,95835.63
2023-01-22T03:51:30.698Z,95845.94
2023-01-22T03:54:33.833Z,95839.88
2023-01-22T03:57:35.578Z,95844.38
2023-01-22T04:00:39.216Z,95842.97
2023-01-22T04:03:41.548Z,95852.34
2023-01-22T04:06:43.512Z,95847.63
2023-01-22T04:09:46.662Z,95850.31
2023-01-22T04:12:48.444Z,95846.75
2023-01-22T04:15:50.251Z,95849.16
2023-01-22T04:18:52.048Z,95853.03
2023-01-22T04:21:53.858Z,95850.72
2023-01-22T04:24:57.091Z,95848.44
2023-01-22T04:27:58.931Z,95859.47
2023-01-22T04:31:00.988Z,95857.69
2023-01-22T04:34:02.870Z,95855.25
2023-01-22T04:37:04.612Z,95856.81
2023-01-22T04:40:09.642Z,95858.97
2023-01-22T04:43:11.914Z,95862.25
2023-01-22T04:46:13.735Z,95849.03
2023-01-22T04:49:15.528Z,95854.00
2023-01-22T04:52:17.434Z,95861.47
2023-01-22T04:55:20.695Z,95861.47
2023-01-22T04:58:22.502Z,95863.25
2023-01-22T05:01:24.528Z,95862.53
2023-01-22T05:04:26.567Z,95859.38
2023-01-22T05:07:28.413Z,95853.00
2023-01-22T05:10:31.633Z,95856.31
2023-01-22T05:13:33.381Z,95858.38
2023-01-22T05:16:35.207Z,95857.75
2023-01-22T05:19:37.044Z,95867.25
2023-01-22T05:22:38.825Z,95872.41
2023-01-22T05:25:47.558Z,95867.59
2023-01-22T05:28:49.322Z,95868.94
2023-01-22T05:31:51.159Z,95869.19
2023-01-22T05:34:52.909Z,95867.31
2023-01-22T05:37:55.997Z,95877.03
2023-01-22T05:40:59.309Z,95879.69
2023-01-22T05:44:01.441Z,95882.03
2023-01-22T05:47:03.316Z,95884.19
2023-01-22T05:50:05.869Z,95889.97
2023-01-22T05:53:08.144Z,95881.25
2023-01-22T05:56:11.316Z,95886.53
2023-01-22T05:59:13.328Z,95887.13
2023-01-22T06:02:15.170Z,95888.38
2023-01-22T06:05:17.081Z,95890.47
2023-01-22T06:08:18.921Z,95887.91
2023-01-22T06:11:22.230Z,95890.81
2023-01-22T06:14:24.010Z,95899.34
2023-01-22T06:17:25.791Z,95882.63
2023-01-22T06:20:27.594Z,95875.09
2023-01-22T06:23:29.548Z,95896.13
2023-01-22T06:26:32.711Z,95891.69
2023-01-22T06:29:34.455Z,95891.63
2023-01-22T06:32:36.207Z,95889.63
2023-01-22T06:35:37.955Z,95895.34
2023-01-22T06:38:39.712Z,95900.06
2023-01-22T06:41:42.824Z,95914.84
2023-01-22T06:44:44.548Z,95917.59
2023-01-22T06:47:46.738Z,95928.31
2023-01-22T06:50:48.855Z,95932.81
2023-01-22T06:53:50.851Z,95932.25
2023-01-22T06:56:54.041Z,95938.53
2023-01-22T06:59:55.912Z,95941.69
2023-01-22T07:02:57.656Z,95939.53
2023-01-22T07:06:01.000Z,95953.28
2023-01-22T07:09:02.841Z,95961.47
2023-01-22T07:12:06.692Z,95969.16
2023-01-22T07:15:09.094Z,95965.66
2023-01-22T07:18:11.589Z,95971.72
2023-01-22T07:21:13.363Z,95980.25
2023-01-22T07:24:15.291Z,95980.09
2023-01-22T07:27:18.586Z,95984.19
2023-01-22T07:30:20.793Z,95986.47
2023-01-22T07:33:22.784Z,95982.25
2023-01-22T07:36:24.661Z,95972.44
2023-01-22T07:39:26.470Z,95975.88
2023-01-22T07:42:29.558Z,95989.81
2023-01-22T07:45:31.361Z,95983.59
2023-01-22T07:48:33.197Z,95990.75
2023-01-22T07:51:35.565Z,95980.38
2023-01-22T07:54:37.456Z,95991.31
2023-01-22T07:57:40.572Z,95987.66
2023-01-22T08:00:42.515Z,95993.06
2023-01-22T08:03:44.618Z,95997.19
2023-01-22T08:06:46.468Z,95994.25
2023-01-22T08:09:48.270Z,95998.13
2023-01-22T08:12:51.509Z,96006.84
2023-01-22T08:15:53.380Z,96001.19
2023-01-22T08:18:55.215Z,96007.47
2023-01-22T08:21:57.203Z,96003.41
2023-01-22T08:24:59.090Z,96020.16
2023-01-22T08:28:04.345Z,96032.25
2023-01-22T08:31:09.400Z,96035.03
2023-01-22T08:34:13.227Z,96031.38
2023-01-22T08:37:15.022Z,96028.00
2023-01-22T08:40:18.635Z,96024.28
2023-01-22T08:43:21.928Z,96018.38
2023-01-22T08:46:23.784Z,96020.53
2023-01-22T08:49:25.686Z,96021.22
2023-01-22T08:52:27.681Z,96028.22
2023-01-22T08:55:29.572Z,96026.75
2023-01-22T08:58:32.818Z,96038.84
2023-01-22T09:01:34.634Z,96039.06
2023-01-22T09:04:36.461Z,96048.88
2023-01-22T09:07:38.305Z,96046.81
2023-01-22T09:10:40.844Z,96049.00
2023-01-22T09:13:44.156Z,96055.41
2023-01-22T09:16:46.032Z,96055.41
2023-01-22T09:19:47.900Z,96061.59
2023-01-22T09:22:49.790Z,96063.56
2023-01-22T09:25:51.586Z,96067.81
2023-01-22T09:28:54.757Z,96066.94
2023-01-22T09:31:56.688Z,96064.78
2023-01-22T09:34:58.490Z,96062.53
2023-01-22T09:38:00.240Z,96063.19
2023-01-22T09:41:07.088Z,96061.72
2023-01-22T09:44:18.012Z,96061.19
2023-01-22T09:47:26.415Z,96049.81
2023-01-22T09:50:32.203Z,96052.25
2023-01-22T09:53:34.796Z,96049.44
2023-01-22T09:56:43.746Z,96054.19
2023-01-22T09:59:49.215Z,96051.31
2023-01-22T10:02:58.025Z,96049.09
2023-01-22T10:06:03.141Z,96054.19
2023-01-22T10:09:13.185Z,96044.81
2023-01-22T10:12:14.923Z,96045.03
2023-01-22T10:15:22.630Z,96049.25
2023-01-22T10:18:33.364Z,96045.78
2023-01-22T10:21:42.235Z,96046.66
2023-01-22T10:24:44.004Z,96044.00
2023-01-22T10:27:46.632Z,96046.41
2023-01-22T10:30:50.366Z,96051.03
2023-01-22T10:33:57.406Z,96053.25
2023-01-22T10:37:01.944Z,96056.56
2023-01-22T10:40:04.056Z,96055.06
2023-01-22T10:43:10.485Z,96060.94
2023-01-22T10:46:20.012Z,96058.03
2023-01-22T10:49:23.917Z,96058.28
2023-01-22T10:52:34.766Z,96058.22
2023-01-22T10:55:41.885Z,96064.38
2023-01-22T10:58:47.418Z,96058.22
2023-01-22T11:01:57.473Z,96059.19
2023-01-22T11:05:07.892Z,96058.34
2023-01-22T11:08:15.362Z,96057.59
2023-01-22T11:11:23.614Z,96062.28
2023-01-22T11:14:29.702Z,96055.56
2023-01-22T11:17:40.462Z,96055.69
2023-01-22T11:20:47.684Z,96062.28
2023-01-22T11:23:55.862Z,96057.09
2023-01-22T11:27:15.398Z,96053.38
2023-01-22T11:30:34.306Z,96061.78
2023-01-22T11:33:49.575Z,96060.56
2023-01-22T11:37:00.363Z,96061.03
2023-01-22T11:40:18.668Z,96058.88
2023-01-22T11:43:33.643Z,96065.22
2023-01-22T11:46:50.279Z,96066.22
2023-01-22T11:50:06.812Z,96070.50
2023-01-22T11:53:31.111Z,96064.50
2023-01-22T11:56:48.731Z,96062.94
2023-01-22T12:00:23.046Z,96065.00
2023-01-22T12:04:03.208Z,96059.69
2023-01-22T12:07:42.392Z,96058.22
2023-01-22T12:10:59.437Z,96056.06
2023-01-22T12:14:32.194Z,96065.63
2023-01-22T12:17:46.793Z,96063.94
2023-01-22T12:21:05.871Z,96060.72
2023-01-22T12:24:18.978Z,96060.22
2023-01-22T12:27:26.274Z,96061.63
2023-01-22T12:30:36.010Z,96063.81
2023-01-22T12:33:40.534Z,96052.44
2023-01-22T12:36:43.956Z,96057.78
2023-01-22T12:39:55.275Z,96062.84
2023-01-22T12:43:01.554Z,96060.91
2023-01-22T12:46:11.872Z,96066.22
2023-01-22T12:49:14.418Z,96061.63
2023-01-22T12:52:36.462Z,96067.56
2023-01-22T12:55:40.636Z,96070.38
2023-01-22T12:58:43.399Z,96067.59
2023-01-22T13:01:45.895Z,96073.72
2023-01-22T13:04:47.708Z,96070.47
2023-01-22T13:08:00.983Z,96079.06
2023-01-22T13:11:06.461Z,96082.03
2023-01-22T13:14:19.162Z,96080.88
2023-01-22T13:17:24.526Z,96079.75
2023-01-22T13:20:28.091Z,96080.59
2023-01-22T13:23:31.621Z,96085.59
2023-01-22T13:26:38.047Z,96083.72
2023-01-22T13:29:40.243Z,96091.47
2023-01-22T13:32:42.375Z,96094.53
2023-01-22T13:35:47.674Z,96098.19
2023-01-22T13:38:54.612Z,96097.59
2023-01-22T13:42:00.031Z,96106.31
2023-01-22T13:45:02.474Z,96107.78
2023-01-22T13:48:05.480Z,96108.28
2023-01-22T13:51:15.345Z,96109.00
2023-01-22T13:54:24.474Z,96110.19
2023-01-22T13:57:28.035Z,96119.84
2023-01-22T14:00:31.927Z,96124.38
2023-01-22T14:03:34.990Z,96123.78
2023-01-22T14:06:44.461Z,96123.97
2023-01-22T14:09:46.384Z,96123.78
2023-01-22T14:13:03.134Z,96125.94
2023-01-22T14:16:06.038Z,96122.09
2023-01-22T14:19:08.855Z,96127.53
2023-01-22T14:22:10.988Z,96126.00
2023-01-22T14:25:13.268Z,96144.59
2023-01-22T14:28:18.063Z,96148.06
2023-01-22T14:31:20.490Z,96137.31
2023-01-22T14:34:24.491Z,96138.34
2023-01-22T14:37:29.201Z,96140.69
2023-01-22T14:40:32.750Z,96144.16
2023-01-22T14:43:36.679Z,96142.38
2023-01-22T14:46:39.248Z,96141.00
2023-01-22T14:49:42.259Z,96150.22
2023-01-22T14:52:45.026Z,96147.38
2023-01-22T14:55:47.095Z,96149.91
2023-01-22T14:58:51.023Z,96157.41
2023-01-22T15:01:54.006Z,96151.50
2023-01-22T15:04:56.528Z,96158.59
2023-01-22T15:07:58.707Z,96154.75
2023-01-22T15:11:01.702Z,96150.13
2023-01-22T15:14:05.645Z,96154.84
2023-01-22T15:17:07.880Z,96164.19
2023-01-22T15:20:12.180Z,96168.44
2023-01-22T15:23:14.668Z,96165.66
2023-01-22T15:26:25.435Z,96172.53
2023-01-22T15:29:31.932Z,96175.19
2023-01-22T15:32:34.093Z,96175.31
2023-01-22T15:35:36.712Z,96176.66
2023-01-22T15:38:39.045Z,96175.66
2023-01-22T15:41:41.875Z,96185.84
2023-01-22T15:44:46.491Z,96182.34
2023-01-22T15:47:48.591Z,96186.63
2023-01-22T15:50:51.561Z,96186.56
2023-01-22T15:53:55.402Z,96191.41
2023-01-22T15:56:58.130Z,96199.16
2023-01-22T16:00:02.122Z,96201.78
2023-01-22T16:03:06.415Z,96204.78
2023-01-22T16:06:10.270Z,96211.63
2023-01-22T16:09:12.980Z,96207.44
2023-01-22T16:12:15.939Z,96204.13
2023-01-22T16:15:19.748Z,96206.03
2023-01-22T16:18:22.022Z,96215.78
2023-01-22T16:21:25.047Z,96218.72
2023-01-22T16:24:27.552Z,96224.34
2023-01-22T16:27:32.613Z,96231.28
2023-01-22T16:30:37.117Z,96223.66
2023-01-22T16:33:43.235Z,96227.00
2023-01-22T16:36:46.348Z,96229.19
2023-01-22T16:39:48.845Z,96224.03
2023-01-22T16:43:02.107Z,96228.09
2023-01-22T16:46:06.047Z,96224.91
2023-01-22T16:49:12.776Z,96235.72
2023-01-22T16:52:22.529Z,96228.66
2023-01-22T16:55:25.908Z,96228.06
2023-01-22T16:58:29.739Z,96230.06
2023-01-22T17:01:34.546Z,96236.44
2023-01-22T17:04:36.999Z,96227.50
2023-01-22T17:07:40.552Z,96229.59
2023-01-22T17:10:43.051Z,96233.25
2023-01-22T17:13:47.892Z,96238.66
2023-01-22T17:16:52.071Z,96230.13
2023-01-22T17:19:55.015Z,96231.06
2023-01-22T17:22:59.405Z,96224.06
2023-01-22T17:26:06.330Z,96225.31
2023-01-22T17:29:09.448Z,96229.28
2023-01-22T17:32:13.609Z,96231.78
2023-01-22T17:35:17.277Z,96239.44
2023-01-22T17:38:20.277Z,96243.50
2023-01-22T17:41:25.331Z,96248.41
2023-01-22T17:44:28.709Z,96252.00
2023-01-22T17:47:33.456Z,96258.78
2023-01-22T17:50:36.083Z,96261.38
2023-01-22T17:53:41.879Z,96256.59
2023-01-22T17:56:44.603Z,96263.13
2023-01-22T17:59:47.390Z,96272.66
2023-01-22T18:02:51.819Z,96273.13
2023-01-22T18:05:54.521Z,96277.56
2023-01-22T18:08:58.026Z,96271.97
2023-01-22T18:12:01.049Z,96275.13
2023-01-22T18:15:04.271Z,96279.88
2023-01-22T18:18:09.054Z,96287.81
2023-01-22T18:21:16.011Z,96286.25
2023-01-22T18:24:22.752Z,96291.81
2023-01-22T18:27:26.230Z,96292.06
2023-01-22T18:30:29.847Z,96289.19
2023-01-22T18:33:34.583Z,96303.50
2023-01-22T18:36:39.325Z,96299.47
2023-01-22T18:39:42.681Z,96306.16
2023-01-22T18:42:45.798Z,96308.00
2023-01-22T18:45:48.364Z,96312.31
2023-01-22T18:48:55.709Z,96319.94
2023-01-22T18:51:58.195Z,96329.19
2023-01-22T18:55:00.970Z,96321.97
2023-01-22T18:58:03.803Z,96318.03
2023-01-22T19:01:12.872Z,96323.34
2023-01-22T19:04:18.408Z,96331.28
2023-01-22T19:07:21.135Z,96335.78
2023-01-22T19:10:24.339Z,96337.84
2023-01-22T19:13:28.367Z,96337.31
2023-01-22T19:16:31.818Z,96330.72
2023-01-22T19:19:36.777Z,96343.16
2023-01-22T19:22:39.612Z,96341.59
2023-01-22T19:25:42.678Z,96356.09
2023-01-22T19:28:45.645Z,96351.84
2023-01-22T19:31:50.557Z,96353.78
2023-01-22T19:34:55.596Z,96357.44
2023-01-22T19:37:58.732Z,96372.53
2023-01-22T19:41:01.637Z,96370.47
2023-01-22T19:44:04.804Z,96370.47
2023-01-22T19:47:07.557Z,96372.38
2023-01-22T19:50:14.930Z,96380.25
2023-01-22T19:53:17.712Z,96381.63
2023-01-22T19:56:23.812Z,96389.28
2023-01-22T19:59:27.823Z,96386.13
2023-01-22T20:02:31.307Z,96390.63
2023-01-22T20:05:39.631Z,96380.88
2023-01-22T20:08:43.262Z,96388.53
2023-01-22T20:11:54.956Z,96397.81
2023-01-22T20:14:57.608Z,96395.16
2023-01-22T20:18:00.392Z,96391.25
2023-01-22T20:21:05.207Z,96386.19
2023-01-22T20:24:09.693Z,96381.66
2023-01-22T20:27:12.413Z,96377.94
2023-01-22T20:30:16.121Z,96370.56
2023-01-22T20:33:18.647Z,96373.22
2023-01-22T20:36:24.335Z,96378.22
2023-01-22T20:39:27.135Z,96380.06
2023-01-22T20:42:30.354Z,96377.72
2023-01-22T20:45:33.352Z,96376.13
2023-01-22T20:48:37.576Z,96379.34
2023-01-22T20:51:42.752Z,96385.38
2023-01-22T20:55:00.573Z,96386.56
2023-01-22T20:58:04.790Z,96376.19
2023-01-22T21:01:09.561Z,96385.00
2023-01-22T21:04:14.856Z,96376.38
2023-01-22T21:07:19.814Z,96380.44
2023-01-22T21:10:22.832Z,96380.72
2023-01-22T21:13:26.097Z,96388.91
2023-01-22T21:16:31.659Z,96387.41
2023-01-22T21:19:35.006Z,96389.75
2023-01-22T21:22:39.545Z,96398.00
2023-01-22T21:25:41.932Z,96394.53
2023-01-22T21:28:44.283Z,96399.22
2023-01-22T21:31:48.194Z,96395.28
2023-01-22T21:34:50.699Z,96395.22
2023-01-22T21:37:54.716Z,96398.34
2023-01-22T21:41:04.401Z,96393.09
2023-01-22T21:44:06.712Z,96393.31
2023-01-22T21:47:08.971Z,96387.31
2023-01-22T21:50:11.846Z,96387.28
2023-01-22T21:53:15.095Z,96384.53
2023-01-22T21:56:16.898Z,96391.88
2023-01-22T21:59:19.585Z,96410.41
2023-01-22T22:02:21.646Z,96422.59
2023-01-22T22:05:23.482Z,96428.59
2023-01-22T22:08:26.642Z,96433.88
2023-01-22T22:11:28.718Z,96427.50
2023-01-22T22:14:30.845Z,96428.84
2023-01-22T22:17:32.598Z,96436.00
2023-01-22T22:20:34.467Z,96443.41
2023-01-22T22:23:37.833Z,96443.91
2023-01-22T22:26:40.026Z,96448.16
2023-01-22T22:29:41.824Z,96449.00
2023-01-22T22:32:43.630Z,96451.13
2023-01-22T22:35:46.190Z,96446.06
2023-01-22T22:38:49.618Z,96445.00
2023-01-22T22:41:51.377Z,96462.22
2023-01-22T22:44:53.166Z,96469.91
2023-01-22T22:47:55.011Z,96462.78
2023-01-22T22:50:56.932Z,96464.13
2023-01-22T22:54:01.977Z,96461.47
2023-01-22T22:57:03.937Z,96461.75
2023-01-22T23:00:10.098Z,96448.50
2023-01-22T23:03:11.981Z,96449.06
2023-01-22T23:06:16.117Z,96454.31
2023-01-22T23:09:20.624Z,96449.53
2023-01-22T23:12:22.397Z,96445.31
2023-01-22T23:15:25.088Z,96441.06
2023-01-22T23:18:26.909Z,96449.00
2023-01-22T23:21:28.998Z,96452.19
2023-01-22T23:24:32.209Z,96454.84
2023-01-22T23:27:33.997Z,96451.66
2023-01-22T23:30:35.952Z,96462.25
2023-01-22T23:33:38.270Z,96455.91
2023-01-22T23:36:41.468Z,96463.31
2023-01-22T23:39:44.880Z,96463.31
2023-01-22T23:42:48.250Z,96469.91
2023-01-22T23:45:50.107Z,96472.56
2023-01-22T23:48:52.190Z,96470.50
2023-01-22T23:51:54.015Z,96464.13
2023-01-22T23:54:57.160Z,96471.59
2023-01-22T23:57:58.903Z,96459.69
